createdAt,value
2023-05-14T00:00:58.853Z,13.48
2023-05-14T00:03:25.447Z,13.48
2023-05-14T00:05:52.178Z,13.44
2023-05-14T00:08:18.588Z,13.40
2023-05-14T00:10:45.047Z,13.36
2023-05-14T00:13:11.461Z,13.35
2023-05-14T00:15:38.015Z,13.37
2023-05-14T00:18:04.655Z,13.34
2023-05-14T00:20:31.137Z,13.31
2023-05-14T00:22:57.536Z,13.24
2023-05-14T00:25:24.046Z,13.18
2023-05-14T00:27:50.526Z,13.20
2023-05-14T00:30:16.995Z,13.20
2023-05-14T00:32:43.394Z,13.17
2023-05-14T00:35:09.827Z,13.13
2023-05-14T00:37:37.208Z,13.14
2023-05-14T00:40:04.059Z,13.18
2023-05-14T00:42:30.445Z,13.15
2023-05-14T00:44:56.814Z,13.13
2023-05-14T00:47:23.466Z,13.16
2023-05-14T00:49:50.050Z,13.15
2023-05-14T00:52:17.808Z,13.09
2023-05-14T00:54:47.033Z,13.07
2023-05-14T00:57:13.734Z,13.01
2023-05-14T00:59:41.802Z,13.00
2023-05-14T01:02:08.283Z,12.98
2023-05-14T01:04:35.241Z,12.99
2023-05-14T01:07:18.855Z,13.04
2023-05-14T01:10:08.395Z,12.99
2023-05-14T01:13:13.818Z,12.93
2023-05-14T01:15:41.771Z,12.81
2023-05-14T01:18:10.487Z,12.84
2023-05-14T01:20:37.149Z,12.81
2023-05-14T01:23:03.697Z,12.80
2023-05-14T01:25:31.341Z,12.80
2023-05-14T01:28:11.985Z,12.80
2023-05-14T01:30:49.246Z,12.80
2023-05-14T01:33:18.244Z,12.74
2023-05-14T01:35:45.322Z,12.73
2023-05-14T01:38:13.968Z,12.69
2023-05-14T01:40:41.762Z,12.65
2023-05-14T01:43:08.708Z,12.63
2023-05-14T01:45:36.184Z,12.61
2023-05-14T01:48:04.131Z,12.58
2023-05-14T01:50:30.717Z,12.57
2023-05-14T01:52:57.160Z,12.54
2023-05-14T01:55:24.456Z,12.49
2023-05-14T01:57:51.621Z,12.52
2023-05-14T02:00:18.551Z,12.55
2023-05-14T02:02:45.008Z,12.56
2023-05-14T02:05:12.653Z,12.52
2023-05-14T02:07:39.182Z,12.50
2023-05-14T02:10:06.316Z,12.50
2023-05-14T02:12:32.793Z,12.51
2023-05-14T02:14:59.189Z,12.52
2023-05-14T02:17:26.430Z,12.48
2023-05-14T02:19:53.135Z,12.46
2023-05-14T02:22:19.517Z,12.42
2023-05-14T02:24:45.899Z,12.45
2023-05-14T02:27:13.297Z,12.39
2023-05-14T02:29:39.686Z,12.35
2023-05-14T02:32:06.419Z,12.35
2023-05-14T02:34:34.409Z,12.32
2023-05-14T02:37:01.053Z,12.28
2023-05-14T02:39:27.591Z,12.28
2023-05-14T02:41:53.974Z,12.32
2023-05-14T02:44:20.449Z,12.27
2023-05-14T02:46:47.665Z,12.23
2023-05-14T02:49:14.047Z,12.21
2023-05-14T02:51:40.519Z,12.15
2023-05-14T02:54:07.256Z,12.16
2023-05-14T02:56:33.627Z,12.13
2023-05-14T02:59:00.463Z,12.10
2023-05-14T03:01:27.324Z,12.10
2023-05-14T03:03:54.195Z,12.09
2023-05-14T03:06:20.554Z,12.10
2023-05-14T03:08:46.983Z,12.14
2023-05-14T03:11:13.427Z,12.10
2023-05-14T03:13:39.781Z,12.07
2023-05-14T03:16:06.510Z,12.01
2023-05-14T03:18:34.623Z,12.01
2023-05-14T03:21:01.126Z,12.00
2023-05-14T03:23:27.816Z,11.95
2023-05-14T03:25:54.256Z,11.92
2023-05-14T03:28:20.674Z,11.86
2023-05-14T03:30:47.069Z,11.85
2023-05-14T03:33:13.892Z,11.88
2023-05-14T03:35:40.335Z,11.89
2023-05-14T03:38:07.479Z,11.93
2023-05-14T03:40:34.002Z,11.88
2023-05-14T03:43:00.666Z,11.84
2023-05-14T03:45:28.688Z,11.82
2023-05-14T03:47:55.131Z,11.81
2023-05-14T03:50:21.850Z,11.78
2023-05-14T03:52:48.364Z,11.80
2023-05-14T03:55:14.786Z,11.80
2023-05-14T03:57:41.442Z,11.80
2023-05-14T04:00:08.692Z,11.81
2023-05-14T04:02:35.262Z,11.81
2023-05-14T04:05:01.757Z,11.80
2023-05-14T04:07:28.188Z,11.79
2023-05-14T04:09:54.609Z,11.79
2023-05-14T04:12:21.062Z,11.80
2023-05-14T04:14:47.519Z,11.77
2023-05-14T04:17:13.908Z,11.80
2023-05-14T04:19:40.477Z,11.83
2023-05-14T04:22:06.854Z,11.86
2023-05-14T04:24:33.307Z,11.86
2023-05-14T04:27:00.063Z,11.84
2023-05-14T04:29:26.561Z,11.86
2023-05-14T04:31:53.596Z,11.85
2023-05-14T04:34:20.224Z,11.86
2023-05-14T04:36:46.624Z,11.87
2023-05-14T04:39:13.078Z,11.86
2023-05-14T04:41:39.501Z,11.89
2023-05-14T04:44:05.902Z,11.93
2023-05-14T04:46:32.405Z,11.94
2023-05-14T04:48:58.817Z,11.98
2023-05-14T04:51:26.291Z,12.06
2023-05-14T04:53:52.694Z,12.07
2023-05-14T04:56:19.043Z,12.10
2023-05-14T04:58:45.508Z,12.14
2023-05-14T05:01:12.144Z,12.15
2023-05-14T05:03:38.679Z,12.18
2023-05-14T05:06:05.240Z,12.18
2023-05-14T05:08:31.646Z,12.19
2023-05-14T05:10:58.130Z,12.23
2023-05-14T05:13:24.537Z,12.29
2023-05-14T05:15:51.100Z,12.33
2023-05-14T05:18:17.609Z,12.38
2023-05-14T05:20:44.113Z,12.41
2023-05-14T05:23:10.505Z,12.42
2023-05-14T05:25:36.854Z,12.45
2023-05-14T05:28:03.269Z,12.51
2023-05-14T05:30:30.244Z,12.52
2023-05-14T05:32:57.602Z,12.55
2023-05-14T05:35:24.444Z,12.59
2023-05-14T05:37:50.971Z,12.63
2023-05-14T05:40:17.578Z,12.67
2023-05-14T05:42:43.937Z,12.63
2023-05-14T05:45:10.591Z,12.63
2023-05-14T05:47:37.158Z,12.68
2023-05-14T05:50:03.857Z,12.74
2023-05-14T05:52:30.413Z,12.70
2023-05-14T05:54:56.791Z,12.68
2023-05-14T05:57:25.626Z,12.64
2023-05-14T05:59:53.113Z,12.60
2023-05-14T06:02:19.995Z,12.59
2023-05-14T06:04:46.781Z,12.65
2023-05-14T06:07:13.204Z,12.70
2023-05-14T06:09:39.579Z,12.78
2023-05-14T06:12:06.426Z,12.80
2023-05-14T06:14:32.853Z,12.73
2023-05-14T06:16:59.294Z,12.77
2023-05-14T06:19:25.683Z,12.78
2023-05-14T06:21:52.047Z,12.79
2023-05-14T06:24:20.046Z,12.85
2023-05-14T06:26:46.529Z,12.95
2023-05-14T06:29:12.975Z,13.02
2023-05-14T06:31:39.456Z,13.16
2023-05-14T06:34:05.957Z,13.28
2023-05-14T06:36:32.378Z,13.25
2023-05-14T06:38:58.856Z,13.24
2023-05-14T06:41:26.125Z,13.27
2023-05-14T06:43:52.587Z,13.37
2023-05-14T06:46:18.952Z,13.39
2023-05-14T06:48:45.722Z,13.63
2023-05-14T06:51:13.243Z,13.90
2023-05-14T06:53:40.607Z,14.14
2023-05-14T06:56:07.029Z,14.27
2023-05-14T06:58:33.447Z,14.35
2023-05-14T07:01:00.120Z,14.36
2023-05-14T07:03:26.685Z,14.46
2023-05-14T07:05:53.113Z,14.48
2023-05-14T07:08:19.482Z,14.55
2023-05-14T07:10:45.841Z,14.64
2023-05-14T07:13:12.215Z,14.70
2023-05-14T07:15:38.633Z,14.67
2023-05-14T07:18:05.242Z,14.71
2023-05-14T07:20:31.651Z,14.84
2023-05-14T07:22:58.066Z,14.89
2023-05-14T07:25:24.479Z,14.96
2023-05-14T07:27:50.886Z,14.98
2023-05-14T07:30:17.474Z,15.02
2023-05-14T07:32:44.165Z,15.07
2023-05-14T07:35:11.703Z,15.21
2023-05-14T07:37:38.574Z,15.34
2023-05-14T07:40:05.493Z,15.36
2023-05-14T07:42:36.603Z,15.40
2023-05-14T07:45:04.741Z,15.45
2023-05-14T07:47:31.209Z,15.46
2023-05-14T07:49:57.949Z,15.49
2023-05-14T07:52:24.925Z,15.64
2023-05-14T07:54:51.908Z,15.78
2023-05-14T07:57:19.716Z,15.88
2023-05-14T07:59:46.765Z,16.03
2023-05-14T08:02:14.028Z,16.09
2023-05-14T08:04:40.493Z,16.23
2023-05-14T08:07:08.456Z,16.30
2023-05-14T08:09:34.881Z,16.38
2023-05-14T08:12:01.436Z,16.29
2023-05-14T08:14:28.637Z,16.24
2023-05-14T08:16:55.061Z,16.21
2023-05-14T08:19:21.605Z,16.31
2023-05-14T08:21:48.029Z,16.41
2023-05-14T08:24:14.989Z,16.49
2023-05-14T08:26:41.923Z,16.61
2023-05-14T08:29:10.488Z,16.75
2023-05-14T08:31:37.429Z,16.86
2023-05-14T08:34:03.878Z,17.01
2023-05-14T08:36:30.325Z,17.05
2023-05-14T08:38:56.858Z,17.09
2023-05-14T08:41:23.345Z,17.11
2023-05-14T08:44:18.546Z,16.98
2023-05-14T08:46:45.660Z,16.98
2023-05-14T08:49:37.485Z,17.25
2023-05-14T08:52:04.271Z,17.45
2023-05-14T08:54:32.493Z,17.55
2023-05-14T08:56:59.539Z,17.63
2023-05-14T08:59:26.010Z,17.62
2023-05-14T09:01:54.282Z,17.46
2023-05-14T09:04:23.046Z,17.46
2023-05-14T09:06:51.876Z,17.48
2023-05-14T09:09:18.814Z,17.50
2023-05-14T09:11:53.044Z,17.63
2023-05-14T09:14:20.281Z,17.67
2023-05-14T09:16:48.877Z,17.67
2023-05-14T09:19:18.837Z,17.60
2023-05-14T09:21:46.452Z,17.63
2023-05-14T09:24:21.440Z,17.81
2023-05-14T09:26:51.724Z,17.74
2023-05-14T09:29:18.522Z,17.85
2023-05-14T09:31:45.352Z,17.83
2023-05-14T09:34:12.041Z,17.90
2023-05-14T09:36:38.524Z,18.07
2023-05-14T09:39:05.059Z,18.11
2023-05-14T09:41:31.518Z,18.16
2023-05-14T09:43:57.984Z,18.17
2023-05-14T09:46:27.278Z,18.18
2023-05-14T09:48:55.955Z,18.26
2023-05-14T09:51:22.534Z,18.29
2023-05-14T09:53:52.436Z,18.47
2023-05-14T09:56:18.929Z,18.61
2023-05-14T09:58:45.342Z,18.69
2023-05-14T10:01:12.470Z,18.54
2023-05-14T10:03:39.509Z,18.58
2023-05-14T10:06:06.862Z,18.74
2023-05-14T10:08:35.400Z,18.97
2023-05-14T10:11:06.483Z,19.00
2023-05-14T10:13:40.622Z,19.09
2023-05-14T10:16:31.906Z,19.15
2023-05-14T10:19:06.005Z,19.16
2023-05-14T10:21:35.960Z,19.31
2023-05-14T10:24:06.783Z,19.41
2023-05-14T10:26:38.949Z,19.50
2023-05-14T10:29:06.325Z,19.50
2023-05-14T10:31:55.945Z,19.55
2023-05-14T10:34:33.372Z,19.47
2023-05-14T10:37:02.153Z,19.57
2023-05-14T10:39:46.379Z,19.81
2023-05-14T10:42:22.051Z,19.81
2023-05-14T10:45:07.371Z,19.90
2023-05-14T10:47:36.338Z,19.94
2023-05-14T10:50:05.531Z,19.88
2023-05-14T10:52:32.292Z,20.02
2023-05-14T10:55:03.408Z,20.15
2023-05-14T10:57:31.972Z,20.09
2023-05-14T11:00:01.020Z,19.94
2023-05-14T11:02:33.179Z,19.96
2023-05-14T11:05:11.464Z,20.25
2023-05-14T11:07:42.524Z,20.44
2023-05-14T11:10:10.295Z,20.51
2023-05-14T11:12:39.163Z,20.60
2023-05-14T11:15:11.640Z,20.64
2023-05-14T11:17:40.310Z,20.37
2023-05-14T11:20:07.899Z,20.17
2023-05-14T11:22:35.502Z,20.22
2023-05-14T11:25:02.328Z,20.43
2023-05-14T11:27:29.990Z,20.58
2023-05-14T11:29:58.042Z,20.62
2023-05-14T11:32:24.673Z,20.76
2023-05-14T11:34:51.389Z,20.84
2023-05-14T11:37:17.872Z,20.89
2023-05-14T11:39:55.132Z,21.03
2023-05-14T11:42:22.573Z,20.99
2023-05-14T11:44:51.977Z,20.95
2023-05-14T11:47:20.624Z,20.86
2023-05-14T11:49:48.052Z,20.52
2023-05-14T11:52:16.263Z,20.28
2023-05-14T11:54:44.240Z,20.29
2023-05-14T11:57:14.396Z,20.26
2023-05-14T11:59:41.224Z,20.28
2023-05-14T12:02:17.392Z,20.50
2023-05-14T12:04:45.049Z,20.61
2023-05-14T12:07:15.078Z,20.74
2023-05-14T12:09:49.651Z,20.90
2023-05-14T12:12:19.719Z,21.02
2023-05-14T12:14:46.746Z,20.88
2023-05-14T12:17:22.858Z,20.96
2023-05-14T12:19:51.438Z,21.00
2023-05-14T12:22:22.161Z,21.09
2023-05-14T12:24:55.952Z,20.97
2023-05-14T12:27:27.214Z,20.93
2023-05-14T12:32:35.791Z,20.65
2023-05-14T12:35:02.350Z,20.64
2023-05-14T12:37:31.032Z,20.74
2023-05-14T12:39:57.718Z,20.70
2023-05-14T12:42:24.144Z,20.75
2023-05-14T12:44:50.648Z,20.81
2023-05-14T12:47:17.336Z,20.80
2023-05-14T12:49:43.777Z,20.61
2023-05-14T12:54:42.891Z,20.77
2023-05-14T12:57:09.474Z,20.89
2023-05-14T12:59:35.985Z,20.96
2023-05-14T13:02:02.426Z,20.88
2023-05-14T13:04:28.877Z,20.74
2023-05-14T13:06:55.477Z,20.76
2023-05-14T13:09:21.855Z,20.77
2023-05-14T13:11:48.225Z,20.90
2023-05-14T13:14:14.651Z,21.03
2023-05-14T13:16:41.112Z,21.11
2023-05-14T13:19:07.610Z,21.09
2023-05-14T13:21:34.043Z,21.08
2023-05-14T13:24:00.454Z,21.00
2023-05-14T13:26:28.217Z,20.88
2023-05-14T13:28:54.621Z,20.80
2023-05-14T13:31:21.107Z,20.85
2023-05-14T13:33:47.522Z,20.68
2023-05-14T13:36:14.698Z,20.61
2023-05-14T13:38:41.255Z,20.58
2023-05-14T13:41:08.491Z,20.52
2023-05-14T13:43:35.925Z,20.48
2023-05-14T13:46:04.336Z,20.62
2023-05-14T13:48:33.995Z,20.67
2023-05-14T13:51:00.459Z,20.77
2023-05-14T13:53:27.249Z,20.82
2023-05-14T13:55:58.274Z,20.81
2023-05-14T13:58:25.259Z,20.74
2023-05-14T14:00:52.611Z,20.71
2023-05-14T14:03:19.109Z,20.76
2023-05-14T14:05:45.617Z,20.82
2023-05-14T14:08:22.516Z,20.77
2023-05-14T14:10:50.627Z,20.66
2023-05-14T14:13:17.048Z,20.67
2023-05-14T14:15:43.760Z,20.52
2023-05-14T14:18:10.241Z,20.50
2023-05-14T14:20:36.669Z,20.59
2023-05-14T14:23:03.519Z,20.49
2023-05-14T14:25:29.889Z,20.44
2023-05-14T14:27:56.642Z,20.43
2023-05-14T14:30:22.993Z,20.49
2023-05-14T14:32:49.825Z,20.55
2023-05-14T14:35:17.654Z,20.48
2023-05-14T14:37:48.498Z,20.49
2023-05-14T14:40:16.194Z,20.66
2023-05-14T14:42:43.281Z,20.71
2023-05-14T14:45:10.362Z,20.72
2023-05-14T14:47:36.926Z,20.82
2023-05-14T14:50:03.522Z,20.85
2023-05-14T14:52:30.223Z,20.80
2023-05-14T14:54:56.954Z,20.70
2023-05-14T14:57:23.441Z,20.63
2023-05-14T14:59:49.859Z,20.52
2023-05-14T15:02:16.592Z,20.54
2023-05-14T15:04:43.173Z,20.51
2023-05-14T15:07:09.678Z,20.43
2023-05-14T15:09:36.135Z,20.46
2023-05-14T15:12:02.601Z,20.25
2023-05-14T15:14:29.036Z,20.27
2023-05-14T15:16:55.726Z,20.24
2023-05-14T15:19:22.179Z,20.27
2023-05-14T15:21:48.598Z,20.29
2023-05-14T15:24:15.003Z,20.22
2023-05-14T15:26:41.927Z,20.14
2023-05-14T15:29:08.356Z,19.98
2023-05-14T15:31:34.877Z,19.93
2023-05-14T15:34:01.471Z,19.96
2023-05-14T15:36:28.632Z,20.00
2023-05-14T15:38:55.066Z,19.97
2023-05-14T15:41:22.700Z,19.94
2023-05-14T15:43:49.091Z,19.96
2023-05-14T15:46:15.492Z,19.93
2023-05-14T15:48:42.096Z,19.88
2023-05-14T15:51:08.558Z,19.86
2023-05-14T15:53:34.950Z,19.86
2023-05-14T15:56:01.490Z,19.89
2023-05-14T15:58:27.922Z,19.99
2023-05-14T16:00:54.321Z,19.95
2023-05-14T16:03:20.816Z,19.91
2023-05-14T16:05:48.447Z,19.82
2023-05-14T16:08:14.916Z,19.70
2023-05-14T16:10:41.364Z,19.63
2023-05-14T16:13:07.802Z,19.65
2023-05-14T16:15:34.334Z,19.66
2023-05-14T16:18:00.912Z,19.63
2023-05-14T16:20:27.333Z,19.58
2023-05-14T16:22:53.692Z,19.63
2023-05-14T16:25:20.243Z,19.65
2023-05-14T16:27:46.752Z,19.68
2023-05-14T16:30:13.387Z,19.52
2023-05-14T16:32:42.021Z,19.51
2023-05-14T16:35:09.924Z,19.45
2023-05-14T16:37:36.353Z,19.45
2023-05-14T16:40:02.996Z,19.44
2023-05-14T16:42:29.428Z,19.47
2023-05-14T16:44:55.831Z,19.46
2023-05-14T16:47:22.181Z,19.47
2023-05-14T16:49:48.672Z,19.42
2023-05-14T16:52:15.312Z,19.33
2023-05-14T16:54:41.778Z,19.22
2023-05-14T16:57:08.218Z,19.20
2023-05-14T16:59:34.650Z,19.21
2023-05-14T17:02:01.243Z,19.19
2023-05-14T17:04:27.854Z,19.08
2023-05-14T17:06:55.140Z,18.97
2023-05-14T17:09:21.607Z,18.91
2023-05-14T17:11:48.028Z,18.87
2023-05-14T17:14:14.846Z,18.83
2023-05-14T17:16:42.263Z,18.72
2023-05-14T17:19:08.943Z,18.76
2023-05-14T17:21:35.518Z,18.80
2023-05-14T17:24:01.957Z,18.77
2023-05-14T17:26:28.353Z,18.67
2023-05-14T17:28:54.715Z,18.63
2023-05-14T17:31:22.233Z,18.45
2023-05-14T17:33:49.382Z,18.44
2023-05-14T17:36:15.885Z,18.37
2023-05-14T17:38:42.334Z,18.37
2023-05-14T17:41:09.650Z,18.18
2023-05-14T17:43:36.190Z,18.06
2023-05-14T17:46:03.444Z,17.97
2023-05-14T17:48:29.979Z,17.85
2023-05-14T17:50:56.391Z,17.81
2023-05-14T17:53:22.737Z,17.90
2023-05-14T17:55:50.068Z,17.86
2023-05-14T17:58:16.706Z,17.77
2023-05-14T18:00:43.622Z,17.70
2023-05-14T18:03:10.640Z,17.74
2023-05-14T18:05:37.108Z,17.54
2023-05-14T18:08:03.517Z,17.33
2023-05-14T18:10:30.062Z,17.18
2023-05-14T18:12:56.663Z,17.16
2023-05-14T18:15:25.741Z,17.05
2023-05-14T18:17:52.672Z,16.91
2023-05-14T18:20:19.524Z,16.77
2023-05-14T18:22:46.202Z,16.75
2023-05-14T18:25:13.527Z,16.70
2023-05-14T18:27:44.292Z,16.60
2023-05-14T18:30:15.274Z,16.57
2023-05-14T18:32:43.977Z,16.52
2023-05-14T18:35:11.540Z,16.46
2023-05-14T18:37:38.013Z,16.41
2023-05-14T18:40:05.168Z,16.37
2023-05-14T18:42:31.633Z,16.26
2023-05-14T18:44:58.054Z,16.18
2023-05-14T18:47:24.791Z,16.06
2023-05-14T18:49:55.040Z,16.01
2023-05-14T18:52:22.623Z,15.93
2023-05-14T18:54:49.084Z,15.89
2023-05-14T18:57:15.531Z,15.89
2023-05-14T18:59:41.944Z,15.89
2023-05-14T19:02:08.370Z,15.74
2023-05-14T19:04:44.255Z,15.64
2023-05-14T19:07:17.366Z,15.59
2023-05-14T19:09:43.771Z,15.56
2023-05-14T19:12:10.202Z,15.46
2023-05-14T19:14:36.741Z,15.37
2023-05-14T19:17:03.438Z,15.35
2023-05-14T19:19:29.919Z,15.28
2023-05-14T19:21:56.530Z,15.22
2023-05-14T19:24:22.892Z,15.16
2023-05-14T19:26:49.339Z,15.14
2023-05-14T19:29:15.745Z,15.14
2023-05-14T19:31:42.166Z,15.13
2023-05-14T19:34:08.611Z,15.08
2023-05-14T19:36:35.151Z,15.12
2023-05-14T19:39:01.813Z,15.04
2023-05-14T19:41:28.391Z,14.87
2023-05-14T19:43:54.787Z,14.79
2023-05-14T19:46:21.258Z,14.74
2023-05-14T19:48:48.435Z,14.73
2023-05-14T19:51:14.826Z,14.64
2023-05-14T19:53:41.244Z,14.52
2023-05-14T19:56:07.784Z,14.44
2023-05-14T19:58:34.339Z,14.42
2023-05-14T20:01:00.785Z,14.43
2023-05-14T20:03:27.410Z,14.38
2023-05-14T20:05:55.239Z,14.35
2023-05-14T20:08:22.064Z,14.27
2023-05-14T20:10:48.724Z,14.28
2023-05-14T20:13:15.540Z,14.23
2023-05-14T20:15:42.834Z,14.22
2023-05-14T20:18:09.595Z,14.20
2023-05-14T20:20:36.583Z,14.18
2023-05-14T20:23:03.545Z,14.18
2023-05-14T20:25:30.146Z,14.12
2023-05-14T20:27:56.764Z,14.16
2023-05-14T20:30:23.305Z,14.14
2023-05-14T20:32:49.920Z,14.09
2023-05-14T20:35:16.430Z,14.08
2023-05-14T20:37:42.839Z,14.11
2023-05-14T20:40:12.824Z,14.11
2023-05-14T20:42:39.338Z,14.09
2023-05-14T20:45:06.892Z,14.03
2023-05-14T20:47:34.179Z,14.00
2023-05-14T20:50:01.020Z,13.98
2023-05-14T20:52:27.585Z,13.97
2023-05-14T20:54:54.022Z,13.96
2023-05-14T20:57:20.576Z,13.98
2023-05-14T21:02:14.021Z,13.95
2023-05-14T21:04:41.029Z,13.91
2023-05-14T21:07:07.689Z,13.92
2023-05-14T21:09:34.180Z,13.91
2023-05-14T21:12:00.646Z,13.89
2023-05-14T21:14:27.087Z,13.92
2023-05-14T21:16:53.664Z,13.94
2023-05-14T21:19:20.389Z,13.93
2023-05-14T21:21:47.335Z,13.87
2023-05-14T21:24:13.827Z,13.82
2023-05-14T21:26:41.359Z,13.79
2023-05-14T21:29:07.826Z,13.77
2023-05-14T21:31:34.271Z,13.74
2023-05-14T21:34:00.788Z,13.73
2023-05-14T21:36:27.248Z,13.74
2023-05-14T21:38:53.815Z,13.71
2023-05-14T21:41:21.033Z,13.70
2023-05-14T21:43:47.500Z,13.61
2023-05-14T21:46:13.905Z,13.56
2023-05-14T21:48:40.439Z,13.59
2023-05-14T21:51:06.988Z,13.59
2023-05-14T21:53:34.621Z,13.57
2023-05-14T21:56:01.014Z,13.56
2023-05-14T21:58:27.802Z,13.53
2023-05-14T22:00:54.205Z,13.51
2023-05-14T22:03:20.834Z,13.45
2023-05-14T22:05:47.745Z,13.39
2023-05-14T22:08:14.108Z,13.35
2023-05-14T22:10:40.799Z,13.36
2023-05-14T22:13:07.150Z,13.37
2023-05-14T22:15:34.384Z,13.36
2023-05-14T22:18:00.900Z,13.39
2023-05-14T22:20:27.427Z,13.36
2023-05-14T22:22:53.922Z,13.32
2023-05-14T22:25:20.436Z,13.29
2023-05-14T22:27:46.882Z,13.26
2023-05-14T22:30:13.414Z,13.25
2023-05-14T22:32:39.945Z,13.23
2023-05-14T22:35:06.652Z,13.22
2023-05-14T22:37:33.054Z,13.23
2023-05-14T22:39:59.530Z,13.27
2023-05-14T22:42:27.151Z,13.25
2023-05-14T22:44:53.667Z,13.25
2023-05-14T22:47:20.202Z,13.25
2023-05-14T22:49:46.844Z,13.26
2023-05-14T22:52:13.311Z,13.25
2023-05-14T22:54:39.744Z,13.19
2023-05-14T22:57:06.615Z,13.15
2023-05-14T22:59:33.276Z,13.11
2023-05-14T23:01:59.783Z,13.13
2023-05-14T23:04:26.423Z,13.10
2023-05-14T23:06:52.895Z,13.08
2023-05-14T23:09:19.254Z,13.09
2023-05-14T23:11:46.181Z,13.07
2023-05-14T23:14:12.577Z,13.10
2023-05-14T23:16:39.479Z,13.10
2023-05-14T23:19:06.081Z,13.05
2023-05-14T23:21:32.975Z,13.08
2023-05-14T23:23:59.387Z,13.11
2023-05-14T23:26:25.879Z,13.11
2023-05-14T23:28:52.352Z,13.08
2023-05-14T23:31:18.785Z,13.12
2023-05-14T23:33:46.293Z,13.06
2023-05-14T23:36:12.872Z,13.05
2023-05-14T23:38:40.099Z,13.06
2023-05-14T23:41:06.467Z,13.09
2023-05-14T23:43:33.693Z,13.11
2023-05-14T23:46:00.948Z,13.10
2023-05-14T23:48:27.616Z,13.08
2023-05-14T23:50:53.979Z,13.09
2023-05-14T23:53:20.367Z,13.11
2023-05-14T23:55:46.904Z,13.08
2023-05-14T23:58:13.305Z,13.10
